createdAt,value
2024-04-09T00:00:30.000Z,286.4
2024-04-09T00:01:57.000Z,286.4
2024-04-09T00:04:03.000Z,286.4
2024-04-09T00:05:30.000Z,286.46
2024-04-09T00:07:37.000Z,286.34
2024-04-09T00:09:04.000Z,286.4
2024-04-09T00:11:10.000Z,286.34
2024-04-09T00:13:55.000Z,286.4
2024-04-09T00:15:22.000Z,286.46
2024-04-09T00:17:28.000Z,286.4
2024-04-09T00:18:55.000Z,286.34
2024-04-09T00:21:01.000Z,286.27
2024-04-09T00:22:28.000Z,286.27
2024-04-09T00:24:34.000Z,286.27
2024-04-09T00:26:01.000Z,286.34
2024-04-09T00:28:07.000Z,286.34
2024-04-09T00:29:33.000Z,286.4
2024-04-09T00:31:40.000Z,286.4
2024-04-09T00:33:06.000Z,286.4
2024-04-09T00:35:12.000Z,286.4
2024-04-09T00:36:39.000Z,286.4
2024-04-09T00:38:45.000Z,286.4
2024-04-09T00:40:12.000Z,286.52
2024-04-09T00:42:18.000Z,286.59
2024-04-09T00:43:45.000Z,286.52
2024-04-09T00:45:51.000Z,286.71
2024-04-09T00:47:18.000Z,286.84
2024-04-09T00:49:24.000Z,286.77
2024-04-09T00:52:09.000Z,286.84
2024-04-09T00:53:36.000Z,286.9
2024-04-09T00:55:42.000Z,286.84
2024-04-09T00:57:09.000Z,286.84
2024-04-09T00:59:15.000Z,286.84
2024-04-09T01:00:42.000Z,286.96
2024-04-09T01:02:48.000Z,286.84
2024-04-09T01:04:15.000Z,286.9
2024-04-09T01:06:21.000Z,286.9
2024-04-09T01:07:48.000Z,286.9
2024-04-09T01:09:54.000Z,286.96
2024-04-09T01:11:21.000Z,286.9
2024-04-09T01:13:27.000Z,286.96
2024-04-09T01:14:54.000Z,286.9
2024-04-09T01:17:00.000Z,286.84
2024-04-09T01:18:27.000Z,286.71
2024-04-09T01:20:33.000Z,286.84
2024-04-09T01:22:00.000Z,286.84
2024-04-09T01:24:06.000Z,286.84
2024-04-09T01:25:33.000Z,286.84
2024-04-09T01:27:39.000Z,286.96
2024-04-09T01:30:25.000Z,286.84
2024-04-09T01:31:51.000Z,286.77
2024-04-09T01:33:58.000Z,286.84
2024-04-09T01:35:25.000Z,286.77
2024-04-09T01:37:31.000Z,286.65
2024-04-09T01:38:57.000Z,286.65
2024-04-09T01:41:04.000Z,286.65
2024-04-09T01:42:30.000Z,286.59
2024-04-09T01:44:37.000Z,286.4
2024-04-09T01:46:03.000Z,286.46
2024-04-09T01:48:09.000Z,286.52
2024-04-09T01:49:36.000Z,286.52
2024-04-09T01:51:42.000Z,286.46
2024-04-09T01:53:09.000Z,286.4
2024-04-09T01:55:16.000Z,286.34
2024-04-09T01:56:42.000Z,286.52
2024-04-09T01:58:48.000Z,286.71
2024-04-09T02:00:15.000Z,286.71
2024-04-09T02:02:22.000Z,286.46
2024-04-09T02:03:48.000Z,286.4
2024-04-09T02:05:54.000Z,286.46
2024-04-09T02:08:40.000Z,286.21
2024-04-09T02:10:06.000Z,286.21
2024-04-09T02:12:13.000Z,286.21
2024-04-09T02:13:39.000Z,286.21
2024-04-09T02:15:45.000Z,286.15
2024-04-09T02:17:12.000Z,286.21
2024-04-09T02:19:18.000Z,286.27
2024-04-09T02:20:45.000Z,286.21
2024-04-09T02:22:51.000Z,286.09
2024-04-09T02:24:17.000Z,286.09
2024-04-09T02:26:24.000Z,286.15
2024-04-09T02:27:50.000Z,286.09
2024-04-09T02:29:57.000Z,286.15
2024-04-09T02:31:23.000Z,286.09
2024-04-09T02:33:30.000Z,286.09
2024-04-09T02:34:56.000Z,286.15
2024-04-09T02:37:03.000Z,286.34
2024-04-09T02:38:30.000Z,286.34
2024-04-09T02:40:36.000Z,286.46
2024-04-09T02:42:02.000Z,286.59
2024-04-09T02:44:09.000Z,286.46
2024-04-09T02:46:54.000Z,286.4
2024-04-09T02:48:20.000Z,286.34
2024-04-09T02:50:27.000Z,286.34
2024-04-09T02:51:53.000Z,286.4
2024-04-09T02:54:00.000Z,286.4
2024-04-09T02:55:26.000Z,286.4
2024-04-09T02:57:32.000Z,286.4
2024-04-09T02:58:59.000Z,286.52
2024-04-09T03:01:05.000Z,286.59
2024-04-09T03:02:32.000Z,286.52
2024-04-09T03:04:39.000Z,286.34
2024-04-09T03:06:05.000Z,286.21
2024-04-09T03:08:12.000Z,286.15
2024-04-09T03:09:38.000Z,286.21
2024-04-09T03:11:44.000Z,286.21
2024-04-09T03:13:11.000Z,286.21
2024-04-09T03:15:17.000Z,286.15
2024-04-09T03:16:44.000Z,286.15
2024-04-09T03:18:50.000Z,286.15
2024-04-09T03:20:17.000Z,286.09
2024-04-09T03:22:23.000Z,285.96
2024-04-09T03:25:08.000Z,285.96
2024-04-09T03:26:34.000Z,286.09
2024-04-09T03:28:40.000Z,286.09
2024-04-09T03:30:07.000Z,285.96
2024-04-09T03:32:13.000Z,285.77
2024-04-09T03:33:40.000Z,285.71
2024-04-09T03:35:46.000Z,285.65
2024-04-09T03:37:13.000Z,285.71
2024-04-09T03:39:19.000Z,285.71
2024-04-09T03:40:46.000Z,285.77
2024-04-09T03:42:52.000Z,285.77
2024-04-09T03:44:18.000Z,285.84
2024-04-09T03:46:25.000Z,285.9
2024-04-09T03:47:51.000Z,285.9
2024-04-09T03:49:58.000Z,285.9
2024-04-09T03:51:24.000Z,285.9
2024-04-09T03:53:30.000Z,285.9
2024-04-09T03:54:57.000Z,285.84
2024-04-09T03:57:03.000Z,285.77
2024-04-09T03:58:30.000Z,285.77
2024-04-09T04:00:36.000Z,285.71
2024-04-09T04:03:22.000Z,285.71
2024-04-09T04:04:48.000Z,285.65
2024-04-09T04:06:55.000Z,285.65
2024-04-09T04:08:21.000Z,285.71
2024-04-09T04:10:27.000Z,285.65
2024-04-09T04:11:54.000Z,285.65
2024-04-09T04:14:00.000Z,285.52
2024-04-09T04:15:27.000Z,285.52
2024-04-09T04:17:33.000Z,285.46
2024-04-09T04:19:00.000Z,285.46
2024-04-09T04:21:06.000Z,285.34
2024-04-09T04:22:33.000Z,285.34
2024-04-09T04:24:39.000Z,285.34
2024-04-09T04:26:05.000Z,285.4
2024-04-09T04:28:12.000Z,285.34
2024-04-09T04:29:38.000Z,285.15
2024-04-09T04:31:45.000Z,285.15
2024-04-09T04:33:11.000Z,285.09
2024-04-09T04:35:18.000Z,285.09
2024-04-09T04:36:44.000Z,285.15
2024-04-09T04:38:51.000Z,285.15
2024-04-09T04:41:36.000Z,285.09
2024-04-09T04:43:03.000Z,285.09
2024-04-09T04:45:09.000Z,285.09
2024-04-09T04:46:36.000Z,285.09
2024-04-09T04:48:42.000Z,285.09
2024-04-09T04:50:08.000Z,285.21
2024-04-09T04:52:15.000Z,285.21
2024-04-09T04:53:41.000Z,285.34
2024-04-09T04:55:47.000Z,285.34
2024-04-09T04:57:14.000Z,285.27
2024-04-09T04:59:20.000Z,285.21
2024-04-09T05:00:47.000Z,285.15
2024-04-09T05:02:54.000Z,285.15
2024-04-09T05:04:20.000Z,285.27
2024-04-09T05:06:27.000Z,285.21
2024-04-09T05:07:54.000Z,285.21
2024-04-09T05:10:01.000Z,285.34
2024-04-09T05:11:27.000Z,285.34
2024-04-09T05:13:34.000Z,285.46
2024-04-09T05:15:00.000Z,285.46
2024-04-09T05:17:06.000Z,285.34
2024-04-09T05:19:52.000Z,285.34
2024-04-09T05:21:18.000Z,285.34
2024-04-09T05:23:24.000Z,285.4
2024-04-09T05:24:51.000Z,285.4
2024-04-09T05:26:57.000Z,285.4
2024-04-09T05:28:23.000Z,285.4
2024-04-09T05:30:30.000Z,285.4
2024-04-09T05:31:56.000Z,285.4
2024-04-09T05:34:02.000Z,285.46
2024-04-09T05:35:29.000Z,285.52
2024-04-09T05:37:35.000Z,285.52
2024-04-09T05:39:01.000Z,285.52
2024-04-09T05:41:08.000Z,285.59
2024-04-09T05:42:34.000Z,285.65
2024-04-09T05:44:41.000Z,285.71
2024-04-09T05:46:07.000Z,285.77
2024-04-09T05:48:13.000Z,285.9
2024-04-09T05:49:40.000Z,285.96
2024-04-09T05:51:47.000Z,286.09
2024-04-09T05:53:14.000Z,286.21
2024-04-09T05:55:20.000Z,286.27
2024-04-09T05:58:06.000Z,287.46
2024-04-09T05:59:32.000Z,288.15
2024-04-09T06:01:38.000Z,288.02
2024-04-09T06:03:05.000Z,288.65
2024-04-09T06:05:11.000Z,289.34
2024-04-09T06:06:38.000Z,289.4
2024-04-09T06:08:44.000Z,289.52
2024-04-09T06:10:11.000Z,289.84
2024-04-09T06:12:17.000Z,289.65
2024-04-09T06:13:44.000Z,289.46
2024-04-09T06:15:50.000Z,289.52
2024-04-09T06:17:17.000Z,289.65
2024-04-09T06:19:23.000Z,289.71
2024-04-09T06:20:50.000Z,289.96
2024-04-09T06:22:56.000Z,289.84
2024-04-09T06:24:22.000Z,289.84
2024-04-09T06:26:29.000Z,289.96
2024-04-09T06:27:56.000Z,289.96
2024-04-09T06:30:02.000Z,290.09
2024-04-09T06:31:29.000Z,290.09
2024-04-09T06:33:35.000Z,290.09
2024-04-09T06:36:20.000Z,289.9
2024-04-09T06:37:48.000Z,289.96
2024-04-09T06:39:54.000Z,290.02
2024-04-09T06:41:21.000Z,290.15
2024-04-09T06:43:27.000Z,290.27
2024-04-09T06:44:53.000Z,290.27
2024-04-09T06:47:00.000Z,290.34
2024-04-09T06:48:27.000Z,290.34
2024-04-09T06:50:38.000Z,290.4
2024-04-09T06:52:04.000Z,290.34
2024-04-09T06:54:11.000Z,290.4
2024-04-09T06:55:37.000Z,290.46
2024-04-09T06:57:43.000Z,290.59
2024-04-09T06:59:10.000Z,290.71
2024-04-09T07:01:16.000Z,290.65
2024-04-09T07:02:43.000Z,290.65
2024-04-09T07:04:49.000Z,290.84
2024-04-09T07:06:16.000Z,290.9
2024-04-09T07:08:22.000Z,291.02
2024-04-09T07:09:48.000Z,291.02
2024-04-09T07:11:55.000Z,291.15
2024-04-09T07:14:40.000Z,291.15
2024-04-09T07:16:06.000Z,291.09
2024-04-09T07:18:12.000Z,291.21
2024-04-09T07:19:39.000Z,291.27
2024-04-09T07:21:45.000Z,291.34
2024-04-09T07:23:12.000Z,291.34
2024-04-09T07:25:18.000Z,291.34
2024-04-09T07:26:45.000Z,291.4
2024-04-09T07:28:51.000Z,291.65
2024-04-09T07:30:17.000Z,291.65
2024-04-09T07:32:24.000Z,291.77
2024-04-09T07:33:50.000Z,291.84
2024-04-09T07:35:57.000Z,291.84
2024-04-09T07:37:24.000Z,291.9
2024-04-09T07:39:30.000Z,291.77
2024-04-09T07:40:57.000Z,291.71
2024-04-09T07:43:03.000Z,291.65
2024-04-09T07:44:30.000Z,291.65
2024-04-09T07:46:36.000Z,291.65
2024-04-09T07:48:03.000Z,291.59
2024-04-09T07:50:09.000Z,291.59
2024-04-09T07:52:55.000Z,291.52
2024-04-09T07:54:21.000Z,291.59
2024-04-09T07:56:28.000Z,291.65
2024-04-09T07:57:54.000Z,291.65
2024-04-09T08:00:00.000Z,291.65
2024-04-09T08:01:27.000Z,291.71
2024-04-09T08:03:33.000Z,291.71
2024-04-09T08:05:00.000Z,291.71
2024-04-09T08:07:07.000Z,291.4
2024-04-09T08:08:34.000Z,291.4
2024-04-09T08:10:44.000Z,291.4
2024-04-09T08:12:10.000Z,291.34
2024-04-09T08:14:17.000Z,291.34
2024-04-09T08:15:43.000Z,291.27
2024-04-09T08:17:50.000Z,291.27
2024-04-09T08:19:16.000Z,291.27
2024-04-09T08:21:23.000Z,291.15
2024-04-09T08:22:49.000Z,291.15
2024-04-09T08:24:56.000Z,291.09
2024-04-09T08:26:22.000Z,291.15
2024-04-09T08:28:28.000Z,291.15
2024-04-09T08:31:13.000Z,291.02
2024-04-09T08:32:40.000Z,291.02
2024-04-09T08:34:47.000Z,291.21
2024-04-09T08:36:13.000Z,291.21
2024-04-09T08:38:20.000Z,291.09
2024-04-09T08:39:46.000Z,291.15
2024-04-09T08:41:53.000Z,291.09
2024-04-09T08:43:19.000Z,291.15
2024-04-09T08:45:26.000Z,291.21
2024-04-09T08:46:52.000Z,291.09
2024-04-09T08:48:58.000Z,291.15
2024-04-09T08:50:25.000Z,291.21
2024-04-09T08:52:32.000Z,291.34
2024-04-09T08:53:59.000Z,291.27
2024-04-09T08:56:05.000Z,291.27
2024-04-09T08:57:32.000Z,291.27
2024-04-09T08:59:38.000Z,291.15
2024-04-09T09:01:05.000Z,291.15
2024-04-09T09:03:11.000Z,291.4
2024-04-09T09:04:38.000Z,291.4
2024-04-09T09:06:44.000Z,291.34
2024-04-09T09:09:29.000Z,291.27
2024-04-09T09:10:56.000Z,291.27
2024-04-09T09:13:02.000Z,291.09
2024-04-09T09:14:29.000Z,291.02
2024-04-09T09:16:35.000Z,290.96
2024-04-09T09:18:02.000Z,290.84
2024-04-09T09:20:08.000Z,290.71
2024-04-09T09:21:34.000Z,290.77
2024-04-09T09:23:41.000Z,290.59
2024-04-09T09:25:08.000Z,290.59
2024-04-09T09:27:14.000Z,290.46
2024-04-09T09:28:40.000Z,290.4
2024-04-09T09:30:46.000Z,290.46
2024-04-09T09:32:13.000Z,290.52
2024-04-09T09:34:19.000Z,290.52
2024-04-09T09:35:46.000Z,290.4
2024-04-09T09:37:52.000Z,290.27
2024-04-09T09:39:22.000Z,290.27
2024-04-09T09:41:28.000Z,290.21
2024-04-09T09:42:55.000Z,290.09
2024-04-09T09:45:01.000Z,290.02
2024-04-09T09:47:46.000Z,290.02
2024-04-09T09:49:13.000Z,290.02
2024-04-09T09:51:20.000Z,289.96
2024-04-09T09:52:47.000Z,289.9
2024-04-09T09:54:53.000Z,289.84
2024-04-09T09:56:23.000Z,289.59
2024-04-09T09:58:30.000Z,289.46
2024-04-09T09:59:56.000Z,289.4
2024-04-09T10:02:03.000Z,289.34
2024-04-09T10:03:29.000Z,289.21
2024-04-09T10:05:36.000Z,289.09
2024-04-09T10:07:02.000Z,289.02
2024-04-09T10:09:09.000Z,288.96
2024-04-09T10:10:35.000Z,288.9
2024-04-09T10:12:41.000Z,288.77
2024-04-09T10:14:08.000Z,288.71
2024-04-09T10:16:14.000Z,288.52
2024-04-09T10:17:41.000Z,288.4
2024-04-09T10:19:52.000Z,288.34
2024-04-09T10:21:19.000Z,288.21
2024-04-09T10:23:25.000Z,288.15
2024-04-09T10:26:10.000Z,287.9
2024-04-09T10:27:37.000Z,287.77
2024-04-09T10:29:44.000Z,287.46
2024-04-09T10:31:10.000Z,287.34
2024-04-09T10:33:48.000Z,287.34
2024-04-09T10:35:15.000Z,287.21
2024-04-09T10:37:21.000Z,287.15
2024-04-09T10:38:48.000Z,287.09
2024-04-09T10:40:54.000Z,286.96
2024-04-09T10:42:21.000Z,287.02
2024-04-09T10:44:27.000Z,286.84
2024-04-09T10:45:54.000Z,286.77
2024-04-09T10:48:13.000Z,286.77
2024-04-09T10:49:40.000Z,286.71
2024-04-09T10:51:46.000Z,286.71
2024-04-09T10:53:13.000Z,286.84
2024-04-09T10:55:19.000Z,286.77
2024-04-09T10:56:46.000Z,286.84
2024-04-09T10:58:52.000Z,286.9
2024-04-09T11:00:19.000Z,286.77
2024-04-09T11:02:25.000Z,286.96
2024-04-09T11:05:11.000Z,286.9
2024-04-09T11:06:38.000Z,286.9
2024-04-09T11:08:44.000Z,286.9
2024-04-09T11:10:10.000Z,286.84
2024-04-09T11:12:17.000Z,286.71
2024-04-09T11:13:43.000Z,286.59
2024-04-09T11:15:49.000Z,286.46
2024-04-09T11:17:16.000Z,286.52
2024-04-09T11:19:22.000Z,286.59
2024-04-09T11:20:49.000Z,286.4
2024-04-09T11:22:55.000Z,286.27
2024-04-09T11:24:21.000Z,286.34
2024-04-09T11:26:28.000Z,286.46
2024-04-09T11:27:54.000Z,286.4
2024-04-09T11:30:01.000Z,286.4
2024-04-09T11:31:27.000Z,286.52
2024-04-09T11:33:34.000Z,286.65
2024-04-09T11:35:00.000Z,286.71
2024-04-09T11:37:07.000Z,286.65
2024-04-09T11:38:33.000Z,286.52
2024-04-09T11:40:39.000Z,286.27
2024-04-09T11:43:25.000Z,286.4
2024-04-09T11:44:52.000Z,286.4
2024-04-09T11:46:58.000Z,286.34
2024-04-09T11:48:24.000Z,286.27
2024-04-09T11:50:31.000Z,286.27
2024-04-09T11:51:57.000Z,286.21
2024-04-09T11:54:04.000Z,286.15
2024-04-09T11:55:30.000Z,286.27
2024-04-09T11:57:36.000Z,286.46
2024-04-09T11:59:03.000Z,286.52
2024-04-09T12:01:10.000Z,286.34
2024-04-09T12:02:37.000Z,286.34
2024-04-09T12:04:44.000Z,286.34
2024-04-09T12:06:10.000Z,286.46
2024-04-09T12:08:17.000Z,286.59
2024-04-09T12:09:44.000Z,286.65
2024-04-09T12:11:50.000Z,286.52
2024-04-09T12:13:16.000Z,286.34
2024-04-09T12:15:22.000Z,286.27
2024-04-09T12:16:49.000Z,286.21
2024-04-09T12:18:55.000Z,286.09
2024-04-09T12:21:41.000Z,286.02
2024-04-09T12:23:08.000Z,285.96
2024-04-09T12:25:14.000Z,285.96
2024-04-09T12:26:40.000Z,285.96
2024-04-09T12:28:47.000Z,285.96
2024-04-09T12:30:14.000Z,285.96
2024-04-09T12:32:20.000Z,285.9
2024-04-09T12:33:47.000Z,285.84
2024-04-09T12:35:53.000Z,285.71
2024-04-09T12:37:19.000Z,285.77
2024-04-09T12:39:26.000Z,285.71
2024-04-09T12:40:52.000Z,285.71
2024-04-09T12:42:58.000Z,285.71
2024-04-09T12:44:25.000Z,285.71
2024-04-09T12:46:31.000Z,285.71
2024-04-09T12:47:57.000Z,285.59
2024-04-09T12:50:04.000Z,285.46
2024-04-09T12:51:31.000Z,285.52
2024-04-09T12:53:37.000Z,285.34
2024-04-09T12:55:04.000Z,285.21
2024-04-09T12:57:10.000Z,285.21
2024-04-09T12:59:55.000Z,284.96
2024-04-09T13:02:00.000Z,284.9
2024-04-09T13:04:06.000Z,284.77
2024-04-09T13:05:38.000Z,284.77
2024-04-09T13:07:45.000Z,284.84
2024-04-09T13:09:11.000Z,284.9
2024-04-09T13:11:17.000Z,284.77
2024-04-09T13:12:44.000Z,284.84
2024-04-09T13:16:20.000Z,284.84
2024-04-09T13:18:52.000Z,284.77
2024-04-09T13:20:18.000Z,284.77
2024-04-09T13:22:24.000Z,284.77
2024-04-09T13:23:51.000Z,284.77
2024-04-09T13:25:57.000Z,284.77
2024-04-09T13:27:24.000Z,284.9
2024-04-09T13:29:30.000Z,284.9
2024-04-09T13:30:56.000Z,284.77
2024-04-09T13:33:02.000Z,284.65
2024-04-09T13:34:29.000Z,284.52
2024-04-09T13:36:35.000Z,284.4
2024-04-09T13:39:21.000Z,284.27
2024-04-09T13:40:48.000Z,284.21
2024-04-09T13:42:54.000Z,284.27
2024-04-09T13:44:20.000Z,284.15
2024-04-09T13:46:27.000Z,284.02
2024-04-09T13:47:53.000Z,284.09
2024-04-09T13:50:00.000Z,284.09
2024-04-09T13:51:26.000Z,284.09
2024-04-09T13:53:32.000Z,284.09
2024-04-09T13:54:59.000Z,284.09
2024-04-09T13:57:05.000Z,284.15
2024-04-09T13:58:32.000Z,284.15
2024-04-09T14:00:39.000Z,284.15
2024-04-09T14:02:06.000Z,284.15
2024-04-09T14:04:12.000Z,284.15
2024-04-09T14:05:39.000Z,284.02
2024-04-09T14:07:45.000Z,284.02
2024-04-09T14:09:12.000Z,284.09
2024-04-09T14:11:18.000Z,284.02
2024-04-09T14:12:46.000Z,284.02
2024-04-09T14:14:52.000Z,284.09
2024-04-09T14:17:37.000Z,284.27
2024-04-09T14:19:04.000Z,284.27
2024-04-09T14:21:10.000Z,284.15
2024-04-09T14:22:37.000Z,284.15
2024-04-09T14:24:43.000Z,284.02
2024-04-09T14:26:10.000Z,283.96
2024-04-09T14:28:16.000Z,284.02
2024-04-09T14:29:42.000Z,283.96
2024-04-09T14:31:49.000Z,283.71
2024-04-09T14:33:15.000Z,283.77
2024-04-09T14:35:22.000Z,283.77
2024-04-09T14:36:48.000Z,283.77
2024-04-09T14:38:55.000Z,283.9
2024-04-09T14:40:21.000Z,283.96
2024-04-09T14:42:27.000Z,283.77
2024-04-09T14:43:54.000Z,283.71
2024-04-09T14:46:04.000Z,283.84
2024-04-09T14:47:31.000Z,283.84
2024-04-09T14:49:37.000Z,283.84
2024-04-09T14:51:04.000Z,283.77
2024-04-09T14:53:10.000Z,283.71
2024-04-09T14:55:55.000Z,283.71
2024-04-09T14:57:22.000Z,283.65
2024-04-09T14:59:28.000Z,283.77
2024-04-09T15:00:55.000Z,283.84
2024-04-09T15:03:01.000Z,283.9
2024-04-09T15:04:28.000Z,283.96
2024-04-09T15:06:34.000Z,283.77
2024-04-09T15:08:00.000Z,283.84
2024-04-09T15:10:07.000Z,283.65
2024-04-09T15:11:34.000Z,283.71
2024-04-09T15:13:40.000Z,283.71
2024-04-09T15:15:07.000Z,283.71
2024-04-09T15:17:13.000Z,283.84
2024-04-09T15:18:40.000Z,283.84
2024-04-09T15:20:46.000Z,283.84
2024-04-09T15:22:13.000Z,283.84
2024-04-09T15:24:19.000Z,283.84
2024-04-09T15:25:46.000Z,283.84
2024-04-09T15:27:52.000Z,283.84
2024-04-09T15:29:18.000Z,283.96
2024-04-09T15:31:24.000Z,283.96
2024-04-09T15:34:10.000Z,283.9
2024-04-09T15:35:37.000Z,283.96
2024-04-09T15:37:43.000Z,283.9
2024-04-09T15:39:10.000Z,283.9
2024-04-09T15:41:16.000Z,284.09
2024-04-09T15:42:43.000Z,284.02
2024-04-09T15:44:49.000Z,284.15
2024-04-09T15:46:16.000Z,284.02
2024-04-09T15:48:22.000Z,283.9
2024-04-09T15:49:49.000Z,283.9
2024-04-09T15:51:55.000Z,283.96
2024-04-09T15:53:22.000Z,283.96
2024-04-09T15:55:28.000Z,283.84
2024-04-09T15:56:55.000Z,283.9
2024-04-09T15:59:01.000Z,283.84
2024-04-09T16:00:28.000Z,283.84
2024-04-09T16:02:35.000Z,283.65
2024-04-09T16:04:01.000Z,283.71
2024-04-09T16:06:08.000Z,283.84
2024-04-09T16:07:34.000Z,283.77
2024-04-09T16:09:41.000Z,283.77
2024-04-09T16:12:26.000Z,283.77
2024-04-09T16:13:53.000Z,283.77
2024-04-09T16:15:59.000Z,283.77
2024-04-09T16:17:26.000Z,283.77
2024-04-09T16:19:32.000Z,283.84
2024-04-09T16:20:58.000Z,283.9
2024-04-09T16:23:04.000Z,283.71
2024-04-09T16:24:31.000Z,283.77
2024-04-09T16:26:37.000Z,283.77
2024-04-09T16:28:04.000Z,283.71
2024-04-09T16:30:10.000Z,283.65
2024-04-09T16:31:36.000Z,283.71
2024-04-09T16:33:43.000Z,283.71
2024-04-09T16:35:09.000Z,283.65
2024-04-09T16:37:16.000Z,283.65
2024-04-09T16:38:42.000Z,283.59
2024-04-09T16:40:48.000Z,283.59
2024-04-09T16:42:15.000Z,283.52
2024-04-09T16:44:21.000Z,283.59
2024-04-09T16:45:48.000Z,283.52
2024-04-09T16:47:54.000Z,283.52
2024-04-09T16:50:40.000Z,283.59
2024-04-09T16:52:07.000Z,283.59
2024-04-09T16:54:13.000Z,283.52
2024-04-09T16:55:39.000Z,283.46
2024-04-09T16:57:46.000Z,283.52
2024-04-09T16:59:12.000Z,283.46
2024-04-09T17:01:19.000Z,283.46
2024-04-09T17:02:45.000Z,283.34
2024-04-09T17:04:52.000Z,283.46
2024-04-09T17:06:18.000Z,283.46
2024-04-09T17:08:24.000Z,283.46
2024-04-09T17:09:51.000Z,283.46
2024-04-09T17:11:57.000Z,283.4
2024-04-09T17:13:24.000Z,283.4
2024-04-09T17:15:30.000Z,283.4
2024-04-09T17:16:57.000Z,283.46
2024-04-09T17:19:04.000Z,283.46
2024-04-09T17:20:30.000Z,283.4
2024-04-09T17:22:37.000Z,283.34
2024-04-09T17:24:03.000Z,283.27
2024-04-09T17:26:09.000Z,283.21
2024-04-09T17:28:54.000Z,283.34
2024-04-09T17:30:21.000Z,283.27
2024-04-09T17:32:28.000Z,283.21
2024-04-09T17:33:55.000Z,283.34
2024-04-09T17:36:01.000Z,283.4
2024-04-09T17:37:28.000Z,283.4
2024-04-09T17:39:34.000Z,283.34
2024-04-09T17:41:00.000Z,283.34
2024-04-09T17:43:06.000Z,283.34
2024-04-09T17:44:33.000Z,283.27
2024-04-09T17:46:39.000Z,283.21
2024-04-09T17:48:06.000Z,283.21
2024-04-09T17:50:12.000Z,283.15
2024-04-09T17:51:39.000Z,283.09
2024-04-09T17:53:45.000Z,283.02
2024-04-09T17:55:12.000Z,283.02
2024-04-09T17:57:18.000Z,282.96
2024-04-09T17:58:44.000Z,283.02
2024-04-09T18:00:50.000Z,283.02
2024-04-09T18:02:17.000Z,283.02
2024-04-09T18:04:23.000Z,283.02
2024-04-09T18:07:09.000Z,282.9
2024-04-09T18:08:35.000Z,282.9
2024-04-09T18:10:42.000Z,282.9
2024-04-09T18:12:08.000Z,282.84
2024-04-09T18:14:15.000Z,282.9
2024-04-09T18:15:41.000Z,282.84
2024-04-09T18:17:47.000Z,282.9
2024-04-09T18:19:14.000Z,282.84
2024-04-09T18:21:21.000Z,282.71
2024-04-09T18:22:47.000Z,282.77
2024-04-09T18:24:53.000Z,282.77
2024-04-09T18:26:20.000Z,282.71
2024-04-09T18:28:26.000Z,282.71
2024-04-09T18:29:52.000Z,282.77
2024-04-09T18:31:58.000Z,282.71
2024-04-09T18:33:25.000Z,282.71
2024-04-09T18:35:32.000Z,282.65
2024-04-09T18:36:59.000Z,282.65
2024-04-09T18:39:05.000Z,282.65
2024-04-09T18:40:32.000Z,282.65
2024-04-09T18:42:38.000Z,282.71
2024-04-09T18:45:23.000Z,282.71
2024-04-09T18:46:50.000Z,282.77
2024-04-09T18:48:56.000Z,282.65
2024-04-09T18:50:23.000Z,282.65
2024-04-09T18:52:30.000Z,282.71
2024-04-09T18:53:56.000Z,282.71
2024-04-09T18:56:02.000Z,282.59
2024-04-09T18:57:29.000Z,282.65
2024-04-09T18:59:35.000Z,282.65
2024-04-09T19:01:02.000Z,282.65
2024-04-09T19:03:08.000Z,282.65
2024-04-09T19:04:35.000Z,282.71
2024-04-09T19:06:41.000Z,282.65
2024-04-09T19:08:08.000Z,282.65
2024-04-09T19:10:14.000Z,282.59
2024-04-09T19:11:41.000Z,282.59
2024-04-09T19:13:47.000Z,282.65
2024-04-09T19:15:13.000Z,282.65
2024-04-09T19:17:20.000Z,282.59
2024-04-09T19:18:46.000Z,282.52
2024-04-09T19:20:53.000Z,282.52
2024-04-09T19:23:38.000Z,282.46
2024-04-09T19:25:04.000Z,282.52
2024-04-09T19:27:11.000Z,282.52
2024-04-09T19:28:37.000Z,282.59
2024-04-09T19:30:44.000Z,282.52
2024-04-09T19:32:10.000Z,282.46
2024-04-09T19:34:17.000Z,282.46
2024-04-09T19:35:43.000Z,282.52
2024-04-09T19:37:49.000Z,282.46
2024-04-09T19:39:16.000Z,282.46
2024-04-09T19:41:22.000Z,282.46
2024-04-09T19:42:49.000Z,282.52
2024-04-09T19:45:17.000Z,282.46
2024-04-09T19:46:43.000Z,282.46
2024-04-09T19:48:54.000Z,282.46
2024-04-09T19:50:21.000Z,282.46
2024-04-09T19:52:28.000Z,282.4
2024-04-09T19:53:55.000Z,282.4
2024-04-09T19:56:01.000Z,282.46
2024-04-09T19:57:28.000Z,282.4
2024-04-09T19:59:34.000Z,282.4
2024-04-09T20:02:19.000Z,282.46
2024-04-09T20:03:46.000Z,282.4
2024-04-09T20:05:53.000Z,282.4
2024-04-09T20:07:19.000Z,282.34
2024-04-09T20:09:25.000Z,282.27
2024-04-09T20:10:52.000Z,282.34
2024-04-09T20:12:58.000Z,282.27
2024-04-09T20:14:25.000Z,282.27
2024-04-09T20:16:31.000Z,282.27
2024-04-09T20:17:57.000Z,282.27
2024-04-09T20:20:04.000Z,282.27
2024-04-09T20:21:30.000Z,282.27
2024-04-09T20:23:37.000Z,282.21
2024-04-09T20:25:03.000Z,282.21
2024-04-09T20:27:09.000Z,282.21
2024-04-09T20:28:36.000Z,282.21
2024-04-09T20:30:42.000Z,282.21
2024-04-09T20:32:09.000Z,282.21
2024-04-09T20:34:15.000Z,282.21
2024-04-09T20:35:42.000Z,282.21
2024-04-09T20:37:48.000Z,282.21
2024-04-09T20:40:33.000Z,282.15
2024-04-09T20:41:59.000Z,282.21
2024-04-09T20:44:06.000Z,282.21
2024-04-09T20:45:32.000Z,282.21
2024-04-09T20:47:40.000Z,282.15
2024-04-09T20:49:06.000Z,282.15
2024-04-09T20:51:13.000Z,282.15
2024-04-09T20:52:39.000Z,282.21
2024-04-09T20:54:46.000Z,282.15
2024-04-09T20:56:12.000Z,282.15
2024-04-09T20:58:18.000Z,282.09
2024-04-09T20:59:45.000Z,282.09
2024-04-09T21:01:51.000Z,282.09
2024-04-09T21:03:17.000Z,282.09
2024-04-09T21:05:24.000Z,282.02
2024-04-09T21:06:50.000Z,282.02
2024-04-09T21:08:56.000Z,282.02
2024-04-09T21:10:23.000Z,282.02
2024-04-09T21:12:29.000Z,281.96
2024-04-09T21:13:55.000Z,281.96
2024-04-09T21:16:02.000Z,281.96
2024-04-09T21:18:48.000Z,281.96
2024-04-09T21:20:15.000Z,281.9
2024-04-09T21:22:21.000Z,281.9
2024-04-09T21:23:47.000Z,281.9
2024-04-09T21:25:53.000Z,281.84
2024-04-09T21:27:20.000Z,281.84
2024-04-09T21:29:26.000Z,281.84
2024-04-09T21:30:53.000Z,281.84
2024-04-09T21:33:00.000Z,281.77
2024-04-09T21:34:26.000Z,281.84
2024-04-09T21:36:32.000Z,281.84
2024-04-09T21:37:59.000Z,281.77
2024-04-09T21:40:05.000Z,281.71
2024-04-09T21:41:32.000Z,281.77
2024-04-09T21:43:38.000Z,281.71
2024-04-09T21:45:05.000Z,281.71
2024-04-09T21:47:12.000Z,281.71
2024-04-09T21:48:39.000Z,281.71
2024-04-09T21:50:45.000Z,281.65
2024-04-09T21:52:14.000Z,281.65
2024-04-09T21:54:20.000Z,281.65
2024-04-09T21:57:05.000Z,281.65
2024-04-09T21:58:32.000Z,281.65
2024-04-09T22:00:38.000Z,281.65
2024-04-09T22:02:05.000Z,281.71
2024-04-09T22:04:11.000Z,281.65
2024-04-09T22:05:38.000Z,281.65
2024-04-09T22:07:44.000Z,281.71
2024-04-09T22:09:10.000Z,281.71
2024-04-09T22:11:17.000Z,281.65
2024-04-09T22:12:43.000Z,281.65
2024-04-09T22:14:50.000Z,281.65
2024-04-09T22:16:16.000Z,281.59
2024-04-09T22:18:22.000Z,281.59
2024-04-09T22:19:49.000Z,281.52
2024-04-09T22:21:55.000Z,281.52
2024-04-09T22:23:22.000Z,281.52
2024-04-09T22:25:28.000Z,281.46
2024-04-09T22:26:55.000Z,281.52
2024-04-09T22:29:01.000Z,281.46
2024-04-09T22:30:27.000Z,281.4
2024-04-09T22:32:33.000Z,281.4
2024-04-09T22:35:19.000Z,281.34
2024-04-09T22:36:45.000Z,281.34
2024-04-09T22:38:52.000Z,281.27
2024-04-09T22:40:18.000Z,281.34
2024-04-09T22:42:25.000Z,281.34
2024-04-09T22:43:51.000Z,281.34
2024-04-09T22:45:58.000Z,281.27
2024-04-09T22:47:25.000Z,281.27
2024-04-09T22:49:31.000Z,281.27
2024-04-09T22:50:58.000Z,281.27
2024-04-09T22:53:05.000Z,281.27